sensor_id;sensor_type;location;lat;lon;timestamp;P1;durP1;ratioP1;P2;durP2;ratioP2
20611;SDS011;10465;42.686;23.364;2024-02-04T00:01:46;7.93;;;4.70;;
20611;SDS011;10465;42.686;23.364;2024-02-04T00:04:12;5.45;;;3.15;;
20611;SDS011;10465;42.686;23.364;2024-02-04T00:06:37;5.53;;;2.65;;
20611;SDS011;10465;42.686;23.364;2024-02-04T00:09:03;4.65;;;2.60;;
20611;SDS011;10465;42.686;23.364;2024-02-04T00:11:29;4.25;;;2.33;;
20611;SDS011;10465;42.686;23.364;2024-02-04T00:13:55;4.90;;;2.47;;
20611;SDS011;10465;42.686;23.364;2024-02-04T00:16:20;4.68;;;2.45;;
20611;SDS011;10465;42.686;23.364;2024-02-04T00:18:46;5.35;;;2.80;;
20611;SDS011;10465;42.686;23.364;2024-02-04T00:21:11;5.75;;;2.75;;
20611;SDS011;10465;42.686;23.364;2024-02-04T00:23:37;5.85;;;2.80;;
20611;SDS011;10465;42.686;23.364;2024-02-04T00:26:02;5.75;;;3.03;;
20611;SDS011;10465;42.686;23.364;2024-02-04T00:28:27;6.43;;;2.90;;
20611;SDS011;10465;42.686;23.364;2024-02-04T00:30:53;5.63;;;3.05;;
20611;SDS011;10465;42.686;23.364;2024-02-04T00:33:21;4.95;;;3.03;;
20611;SDS011;10465;42.686;23.364;2024-02-04T00:35:47;5.15;;;3.03;;
20611;SDS011;10465;42.686;23.364;2024-02-04T00:38:12;4.60;;;3.00;;
20611;SDS011;10465;42.686;23.364;2024-02-04T00:40:37;6.55;;;3.80;;
20611;SDS011;10465;42.686;23.364;2024-02-04T00:43:03;4.90;;;2.90;;
20611;SDS011;10465;42.686;23.364;2024-02-04T00:45:28;4.55;;;3.22;;
20611;SDS011;10465;42.686;23.364;2024-02-04T00:47:54;7.40;;;3.13;;
20611;SDS011;10465;42.686;23.364;2024-02-04T00:50:19;4.15;;;2.83;;
20611;SDS011;10465;42.686;23.364;2024-02-04T00:52:45;4.95;;;3.50;;
20611;SDS011;10465;42.686;23.364;2024-02-04T00:55:10;7.53;;;2.92;;
20611;SDS011;10465;42.686;23.364;2024-02-04T00:57:36;3.60;;;2.65;;
20611;SDS011;10465;42.686;23.364;2024-02-04T01:00:01;4.47;;;3.00;;
20611;SDS011;10465;42.686;23.364;2024-02-04T01:02:27;3.95;;;2.67;;
20611;SDS011;10465;42.686;23.364;2024-02-04T01:04:52;5.63;;;3.00;;
20611;SDS011;10465;42.686;23.364;2024-02-04T01:07:18;6.25;;;3.20;;
20611;SDS011;10465;42.686;23.364;2024-02-04T01:09:43;4.50;;;2.92;;
20611;SDS011;10465;42.686;23.364;2024-02-04T01:12:09;7.05;;;2.90;;
20611;SDS011;10465;42.686;23.364;2024-02-04T01:14:34;5.00;;;2.67;;
20611;SDS011;10465;42.686;23.364;2024-02-04T01:16:59;3.53;;;2.60;;
20611;SDS011;10465;42.686;23.364;2024-02-04T01:19:25;4.07;;;2.97;;
20611;SDS011;10465;42.686;23.364;2024-02-04T01:21:50;5.00;;;2.60;;
20611;SDS011;10465;42.686;23.364;2024-02-04T01:24:16;7.20;;;3.40;;
20611;SDS011;10465;42.686;23.364;2024-02-04T01:26:41;7.40;;;3.05;;
20611;SDS011;10465;42.686;23.364;2024-02-04T01:29:07;4.43;;;2.65;;
20611;SDS011;10465;42.686;23.364;2024-02-04T01:31:32;4.47;;;2.70;;
20611;SDS011;10465;42.686;23.364;2024-02-04T01:33:58;4.85;;;3.03;;
20611;SDS011;10465;42.686;23.364;2024-02-04T01:36:23;4.30;;;2.80;;
20611;SDS011;10465;42.686;23.364;2024-02-04T01:38:48;3.97;;;2.40;;
20611;SDS011;10465;42.686;23.364;2024-02-04T01:41:14;4.90;;;2.67;;
20611;SDS011;10465;42.686;23.364;2024-02-04T01:43:40;4.53;;;2.70;;
20611;SDS011;10465;42.686;23.364;2024-02-04T01:46:05;3.40;;;2.60;;
20611;SDS011;10465;42.686;23.364;2024-02-04T01:48:31;4.38;;;2.60;;
20611;SDS011;10465;42.686;23.364;2024-02-04T01:50:57;5.25;;;2.70;;
20611;SDS011;10465;42.686;23.364;2024-02-04T01:53:24;4.93;;;2.10;;
20611;SDS011;10465;42.686;23.364;2024-02-04T01:55:51;6.00;;;2.65;;
20611;SDS011;10465;42.686;23.364;2024-02-04T01:58:17;4.88;;;3.00;;
20611;SDS011;10465;42.686;23.364;2024-02-04T02:00:42;4.65;;;2.42;;
20611;SDS011;10465;42.686;23.364;2024-02-04T02:03:11;3.40;;;1.92;;
20611;SDS011;10465;42.686;23.364;2024-02-04T02:05:37;3.35;;;2.15;;
20611;SDS011;10465;42.686;23.364;2024-02-04T02:08:04;4.63;;;2.55;;
20611;SDS011;10465;42.686;23.364;2024-02-04T02:10:30;3.78;;;2.67;;
20611;SDS011;10465;42.686;23.364;2024-02-04T02:12:58;4.20;;;2.38;;
20611;SDS011;10465;42.686;23.364;2024-02-04T02:15:30;4.32;;;2.70;;
20611;SDS011;10465;42.686;23.364;2024-02-04T02:18:10;3.40;;;2.20;;
20611;SDS011;10465;42.686;23.364;2024-02-04T02:23:53;5.13;;;2.08;;
20611;SDS011;10465;42.686;23.364;2024-02-04T02:26:29;4.80;;;2.30;;
20611;SDS011;10465;42.686;23.364;2024-02-04T02:28:58;3.90;;;2.20;;
20611;SDS011;10465;42.686;23.364;2024-02-04T02:31:23;3.97;;;2.13;;
20611;SDS011;10465;42.686;23.364;2024-02-04T02:33:49;4.20;;;2.28;;
20611;SDS011;10465;42.686;23.364;2024-02-04T02:36:16;3.58;;;2.10;;
20611;SDS011;10465;42.686;23.364;2024-02-04T02:38:59;4.93;;;2.30;;
20611;SDS011;10465;42.686;23.364;2024-02-04T02:41:35;5.28;;;2.03;;
20611;SDS011;10465;42.686;23.364;2024-02-04T02:44:02;3.28;;;2.17;;
20611;SDS011;10465;42.686;23.364;2024-02-04T02:46:30;5.18;;;2.65;;
20611;SDS011;10465;42.686;23.364;2024-02-04T02:48:55;4.90;;;2.53;;
20611;SDS011;10465;42.686;23.364;2024-02-04T02:51:22;5.53;;;2.30;;
20611;SDS011;10465;42.686;23.364;2024-02-04T02:53:47;4.15;;;2.50;;
20611;SDS011;10465;42.686;23.364;2024-02-04T02:56:12;4.43;;;2.40;;
20611;SDS011;10465;42.686;23.364;2024-02-04T02:58:38;5.38;;;2.35;;
20611;SDS011;10465;42.686;23.364;2024-02-04T03:01:03;3.53;;;2.15;;
20611;SDS011;10465;42.686;23.364;2024-02-04T03:03:29;4.10;;;2.00;;
20611;SDS011;10465;42.686;23.364;2024-02-04T03:05:54;4.28;;;2.42;;
20611;SDS011;10465;42.686;23.364;2024-02-04T03:08:19;3.10;;;2.10;;
20611;SDS011;10465;42.686;23.364;2024-02-04T03:10:45;3.20;;;2.13;;
20611;SDS011;10465;42.686;23.364;2024-02-04T03:13:10;3.78;;;2.80;;
20611;SDS011;10465;42.686;23.364;2024-02-04T03:15:36;4.20;;;2.80;;
20611;SDS011;10465;42.686;23.364;2024-02-04T03:18:01;3.97;;;2.70;;
20611;SDS011;10465;42.686;23.364;2024-02-04T03:20:27;3.75;;;2.45;;
20611;SDS011;10465;42.686;23.364;2024-02-04T03:22:52;3.97;;;2.67;;
20611;SDS011;10465;42.686;23.364;2024-02-04T03:25:17;3.75;;;2.58;;
20611;SDS011;10465;42.686;23.364;2024-02-04T03:27:43;4.07;;;2.67;;
20611;SDS011;10465;42.686;23.364;2024-02-04T03:30:09;6.35;;;3.00;;
20611;SDS011;10465;42.686;23.364;2024-02-04T03:32:35;4.25;;;2.80;;
20611;SDS011;10465;42.686;23.364;2024-02-04T03:35:00;5.85;;;2.85;;
20611;SDS011;10465;42.686;23.364;2024-02-04T03:37:26;4.65;;;2.60;;
20611;SDS011;10465;42.686;23.364;2024-02-04T03:39:52;4.93;;;2.80;;
20611;SDS011;10465;42.686;23.364;2024-02-04T03:42:17;4.03;;;2.78;;
20611;SDS011;10465;42.686;23.364;2024-02-04T03:44:44;4.10;;;2.53;;
20611;SDS011;10465;42.686;23.364;2024-02-04T03:47:10;5.13;;;2.50;;
20611;SDS011;10465;42.686;23.364;2024-02-04T03:49:35;4.03;;;2.42;;
20611;SDS011;10465;42.686;23.364;2024-02-04T03:52:00;3.05;;;2.25;;
20611;SDS011;10465;42.686;23.364;2024-02-04T03:54:26;3.70;;;2.30;;
20611;SDS011;10465;42.686;23.364;2024-02-04T03:56:51;4.43;;;2.50;;
20611;SDS011;10465;42.686;23.364;2024-02-04T03:59:17;3.92;;;2.42;;
20611;SDS011;10465;42.686;23.364;2024-02-04T04:01:49;4.38;;;2.40;;
20611;SDS011;10465;42.686;23.364;2024-02-04T04:04:15;4.13;;;2.60;;
20611;SDS011;10465;42.686;23.364;2024-02-04T04:06:42;5.43;;;2.60;;
20611;SDS011;10465;42.686;23.364;2024-02-04T04:09:09;5.30;;;2.55;;
20611;SDS011;10465;42.686;23.364;2024-02-04T04:11:35;3.85;;;2.08;;
20611;SDS011;10465;42.686;23.364;2024-02-04T04:14:01;4.53;;;2.28;;
20611;SDS011;10465;42.686;23.364;2024-02-04T04:16:26;6.13;;;2.45;;
20611;SDS011;10465;42.686;23.364;2024-02-04T04:18:52;2.83;;;2.10;;
20611;SDS011;10465;42.686;23.364;2024-02-04T04:21:18;4.43;;;2.40;;
20611;SDS011;10465;42.686;23.364;2024-02-04T04:23:43;2.72;;;2.17;;
20611;SDS011;10465;42.686;23.364;2024-02-04T04:26:09;3.22;;;2.28;;
20611;SDS011;10465;42.686;23.364;2024-02-04T04:28:34;3.95;;;2.10;;
20611;SDS011;10465;42.686;23.364;2024-02-04T04:31:00;4.70;;;2.55;;
20611;SDS011;10465;42.686;23.364;2024-02-04T04:33:25;2.72;;;2.28;;
20611;SDS011;10465;42.686;23.364;2024-02-04T04:35:50;2.72;;;2.13;;
20611;SDS011;10465;42.686;23.364;2024-02-04T04:38:16;3.17;;;2.00;;
20611;SDS011;10465;42.686;23.364;2024-02-04T04:40:41;4.50;;;2.42;;
20611;SDS011;10465;42.686;23.364;2024-02-04T04:43:07;3.58;;;2.45;;
20611;SDS011;10465;42.686;23.364;2024-02-04T04:45:32;3.33;;;2.97;;
20611;SDS011;10465;42.686;23.364;2024-02-04T04:47:58;3.22;;;2.53;;
20611;SDS011;10465;42.686;23.364;2024-02-04T04:50:23;4.05;;;2.95;;
20611;SDS011;10465;42.686;23.364;2024-02-04T04:52:49;3.50;;;2.42;;
20611;SDS011;10465;42.686;23.364;2024-02-04T04:55:14;4.25;;;2.60;;
20611;SDS011;10465;42.686;23.364;2024-02-04T04:57:40;4.30;;;2.65;;
20611;SDS011;10465;42.686;23.364;2024-02-04T05:00:05;3.08;;;2.10;;
20611;SDS011;10465;42.686;23.364;2024-02-04T05:02:34;3.53;;;2.17;;
20611;SDS011;10465;42.686;23.364;2024-02-04T05:05:01;4.72;;;2.60;;
20611;SDS011;10465;42.686;23.364;2024-02-04T05:07:26;3.72;;;2.20;;
20611;SDS011;10465;42.686;23.364;2024-02-04T05:09:51;5.25;;;2.97;;
20611;SDS011;10465;42.686;23.364;2024-02-04T05:12:17;5.03;;;2.30;;
20611;SDS011;10465;42.686;23.364;2024-02-04T05:14:42;3.83;;;2.17;;
20611;SDS011;10465;42.686;23.364;2024-02-04T05:17:08;4.40;;;2.17;;
20611;SDS011;10465;42.686;23.364;2024-02-04T05:19:34;4.65;;;2.45;;
20611;SDS011;10465;42.686;23.364;2024-02-04T05:22:00;3.97;;;2.47;;
20611;SDS011;10465;42.686;23.364;2024-02-04T05:24:26;4.55;;;2.65;;
20611;SDS011;10465;42.686;23.364;2024-02-04T05:26:52;5.78;;;2.45;;
20611;SDS011;10465;42.686;23.364;2024-02-04T05:29:17;3.33;;;2.05;;
20611;SDS011;10465;42.686;23.364;2024-02-04T05:31:43;3.33;;;2.17;;
20611;SDS011;10465;42.686;23.364;2024-02-04T05:34:09;3.80;;;2.53;;
20611;SDS011;10465;42.686;23.364;2024-02-04T05:36:34;3.95;;;2.85;;
20611;SDS011;10465;42.686;23.364;2024-02-04T05:39:10;5.47;;;2.17;;
20611;SDS011;10465;42.686;23.364;2024-02-04T05:41:39;3.60;;;2.45;;
20611;SDS011;10465;42.686;23.364;2024-02-04T05:44:05;3.60;;;2.15;;
20611;SDS011;10465;42.686;23.364;2024-02-04T05:46:31;3.35;;;2.10;;
20611;SDS011;10465;42.686;23.364;2024-02-04T05:48:57;3.83;;;2.53;;
20611;SDS011;10465;42.686;23.364;2024-02-04T05:51:23;4.68;;;3.13;;
20611;SDS011;10465;42.686;23.364;2024-02-04T05:53:48;4.47;;;2.90;;
20611;SDS011;10465;42.686;23.364;2024-02-04T05:56:14;3.65;;;2.42;;
20611;SDS011;10465;42.686;23.364;2024-02-04T05:58:39;3.92;;;2.45;;
20611;SDS011;10465;42.686;23.364;2024-02-04T06:01:05;5.90;;;2.50;;
20611;SDS011;10465;42.686;23.364;2024-02-04T06:03:30;3.83;;;2.50;;
20611;SDS011;10465;42.686;23.364;2024-02-04T06:05:56;5.10;;;2.95;;
20611;SDS011;10465;42.686;23.364;2024-02-04T06:08:21;6.00;;;2.80;;
20611;SDS011;10465;42.686;23.364;2024-02-04T06:10:47;5.60;;;2.70;;
20611;SDS011;10465;42.686;23.364;2024-02-04T06:13:12;4.55;;;2.67;;
20611;SDS011;10465;42.686;23.364;2024-02-04T06:15:37;8.50;;;3.40;;
20611;SDS011;10465;42.686;23.364;2024-02-04T06:18:03;6.93;;;3.25;;
20611;SDS011;10465;42.686;23.364;2024-02-04T06:20:29;7.07;;;3.55;;
20611;SDS011;10465;42.686;23.364;2024-02-04T06:22:54;5.05;;;3.40;;
20611;SDS011;10465;42.686;23.364;2024-02-04T06:25:19;6.53;;;3.63;;
20611;SDS011;10465;42.686;23.364;2024-02-04T06:27:45;5.32;;;2.92;;
20611;SDS011;10465;42.686;23.364;2024-02-04T06:30:10;5.93;;;3.55;;
20611;SDS011;10465;42.686;23.364;2024-02-04T06:32:36;7.20;;;2.95;;
20611;SDS011;10465;42.686;23.364;2024-02-04T06:35:02;4.65;;;2.95;;
20611;SDS011;10465;42.686;23.364;2024-02-04T06:37:27;6.80;;;3.15;;
20611;SDS011;10465;42.686;23.364;2024-02-04T06:39:54;5.68;;;2.78;;
20611;SDS011;10465;42.686;23.364;2024-02-04T06:42:19;3.88;;;2.65;;
20611;SDS011;10465;42.686;23.364;2024-02-04T06:44:45;4.75;;;3.08;;
20611;SDS011;10465;42.686;23.364;2024-02-04T06:47:10;4.32;;;2.72;;
20611;SDS011;10465;42.686;23.364;2024-02-04T06:49:39;5.32;;;3.00;;
20611;SDS011;10465;42.686;23.364;2024-02-04T06:52:08;5.20;;;3.20;;
20611;SDS011;10465;42.686;23.364;2024-02-04T06:54:34;5.03;;;3.28;;
20611;SDS011;10465;42.686;23.364;2024-02-04T06:56:59;5.35;;;2.80;;
20611;SDS011;10465;42.686;23.364;2024-02-04T06:59:24;3.90;;;2.63;;
20611;SDS011;10465;42.686;23.364;2024-02-04T07:01:50;4.70;;;2.75;;
20611;SDS011;10465;42.686;23.364;2024-02-04T07:04:17;4.50;;;2.58;;
20611;SDS011;10465;42.686;23.364;2024-02-04T07:06:43;3.92;;;2.92;;
20611;SDS011;10465;42.686;23.364;2024-02-04T07:09:08;4.78;;;2.78;;
20611;SDS011;10465;42.686;23.364;2024-02-04T07:11:34;3.35;;;2.15;;
20611;SDS011;10465;42.686;23.364;2024-02-04T07:13:59;4.40;;;2.72;;
20611;SDS011;10465;42.686;23.364;2024-02-04T07:16:25;4.65;;;3.17;;
20611;SDS011;10465;42.686;23.364;2024-02-04T07:18:51;4.35;;;2.22;;
20611;SDS011;10465;42.686;23.364;2024-02-04T07:21:16;8.27;;;2.90;;
20611;SDS011;10465;42.686;23.364;2024-02-04T07:23:42;5.28;;;2.67;;
20611;SDS011;10465;42.686;23.364;2024-02-04T07:26:08;4.82;;;2.83;;
20611;SDS011;10465;42.686;23.364;2024-02-04T07:28:33;4.50;;;2.65;;
20611;SDS011;10465;42.686;23.364;2024-02-04T07:30:59;5.03;;;2.63;;
20611;SDS011;10465;42.686;23.364;2024-02-04T07:33:25;4.38;;;2.40;;
20611;SDS011;10465;42.686;23.364;2024-02-04T07:35:50;4.50;;;3.08;;
20611;SDS011;10465;42.686;23.364;2024-02-04T07:38:16;6.38;;;2.63;;
20611;SDS011;10465;42.686;23.364;2024-02-04T07:40:41;3.35;;;2.30;;
20611;SDS011;10465;42.686;23.364;2024-02-04T07:43:07;3.30;;;2.33;;
20611;SDS011;10465;42.686;23.364;2024-02-04T07:45:32;3.63;;;2.30;;
20611;SDS011;10465;42.686;23.364;2024-02-04T07:47:59;4.50;;;2.88;;
20611;SDS011;10465;42.686;23.364;2024-02-04T07:50:24;3.10;;;2.13;;
20611;SDS011;10465;42.686;23.364;2024-02-04T07:52:50;5.85;;;2.65;;
20611;SDS011;10465;42.686;23.364;2024-02-04T07:55:16;3.60;;;2.20;;
20611;SDS011;10465;42.686;23.364;2024-02-04T07:57:42;4.20;;;2.47;;
20611;SDS011;10465;42.686;23.364;2024-02-04T08:00:07;6.70;;;2.70;;
20611;SDS011;10465;42.686;23.364;2024-02-04T08:02:35;3.88;;;2.30;;
20611;SDS011;10465;42.686;23.364;2024-02-04T08:05:01;3.92;;;2.53;;
20611;SDS011;10465;42.686;23.364;2024-02-04T08:07:27;3.78;;;2.45;;
20611;SDS011;10465;42.686;23.364;2024-02-04T08:09:52;3.67;;;2.55;;
20611;SDS011;10465;42.686;23.364;2024-02-04T08:12:17;4.25;;;2.40;;
20611;SDS011;10465;42.686;23.364;2024-02-04T08:14:43;3.67;;;2.42;;
20611;SDS011;10465;42.686;23.364;2024-02-04T08:17:08;4.00;;;2.70;;
20611;SDS011;10465;42.686;23.364;2024-02-04T08:19:33;5.68;;;2.58;;
20611;SDS011;10465;42.686;23.364;2024-02-04T08:22:00;4.15;;;2.13;;
20611;SDS011;10465;42.686;23.364;2024-02-04T08:24:25;3.78;;;2.35;;
20611;SDS011;10465;42.686;23.364;2024-02-04T08:26:51;2.63;;;2.20;;
20611;SDS011;10465;42.686;23.364;2024-02-04T08:29:16;3.35;;;2.08;;
20611;SDS011;10465;42.686;23.364;2024-02-04T08:31:42;3.42;;;2.35;;
20611;SDS011;10465;42.686;23.364;2024-02-04T08:34:07;7.10;;;2.20;;
20611;SDS011;10465;42.686;23.364;2024-02-04T08:36:33;3.25;;;2.10;;
20611;SDS011;10465;42.686;23.364;2024-02-04T08:38:58;3.20;;;2.30;;
20611;SDS011;10465;42.686;23.364;2024-02-04T08:41:24;3.38;;;2.15;;
20611;SDS011;10465;42.686;23.364;2024-02-04T08:43:49;3.30;;;1.92;;
20611;SDS011;10465;42.686;23.364;2024-02-04T08:46:15;2.50;;;1.60;;
20611;SDS011;10465;42.686;23.364;2024-02-04T08:48:43;3.05;;;1.92;;
20611;SDS011;10465;42.686;23.364;2024-02-04T08:51:12;4.00;;;1.85;;
20611;SDS011;10465;42.686;23.364;2024-02-04T08:53:38;3.30;;;1.98;;
20611;SDS011;10465;42.686;23.364;2024-02-04T08:56:07;3.38;;;1.95;;
20611;SDS011;10465;42.686;23.364;2024-02-04T08:58:33;3.03;;;1.60;;
20611;SDS011;10465;42.686;23.364;2024-02-04T09:00:58;3.00;;;1.48;;
20611;SDS011;10465;42.686;23.364;2024-02-04T09:03:24;2.88;;;1.70;;
20611;SDS011;10465;42.686;23.364;2024-02-04T09:05:49;2.88;;;1.58;;
20611;SDS011;10465;42.686;23.364;2024-02-04T09:08:14;1.83;;;1.27;;
20611;SDS011;10465;42.686;23.364;2024-02-04T09:10:40;2.20;;;1.20;;
20611;SDS011;10465;42.686;23.364;2024-02-04T09:13:06;3.08;;;1.48;;
20611;SDS011;10465;42.686;23.364;2024-02-04T09:15:31;2.78;;;1.50;;
20611;SDS011;10465;42.686;23.364;2024-02-04T09:17:57;1.70;;;1.27;;
20611;SDS011;10465;42.686;23.364;2024-02-04T09:20:22;2.33;;;1.52;;
20611;SDS011;10465;42.686;23.364;2024-02-04T09:22:48;3.03;;;1.83;;
20611;SDS011;10465;42.686;23.364;2024-02-04T09:25:14;3.85;;;1.70;;
20611;SDS011;10465;42.686;23.364;2024-02-04T09:27:39;4.15;;;2.13;;
20611;SDS011;10465;42.686;23.364;2024-02-04T09:30:05;2.22;;;1.33;;
20611;SDS011;10465;42.686;23.364;2024-02-04T09:32:31;2.85;;;1.70;;
20611;SDS011;10465;42.686;23.364;2024-02-04T09:34:57;3.10;;;1.42;;
20611;SDS011;10465;42.686;23.364;2024-02-04T09:37:22;2.33;;;1.48;;
20611;SDS011;10465;42.686;23.364;2024-02-04T09:39:48;1.88;;;1.20;;
20611;SDS011;10465;42.686;23.364;2024-02-04T09:42:16;1.98;;;1.42;;
20611;SDS011;10465;42.686;23.364;2024-02-04T09:44:45;1.25;;;0.98;;
20611;SDS011;10465;42.686;23.364;2024-02-04T09:47:11;2.05;;;1.38;;
20611;SDS011;10465;42.686;23.364;2024-02-04T09:49:38;1.85;;;1.38;;
20611;SDS011;10465;42.686;23.364;2024-02-04T09:52:06;2.38;;;1.60;;
20611;SDS011;10465;42.686;23.364;2024-02-04T09:54:43;4.20;;;1.77;;
20611;SDS011;10465;42.686;23.364;2024-02-04T09:57:10;4.43;;;1.58;;
20611;SDS011;10465;42.686;23.364;2024-02-04T09:59:37;1.77;;;1.10;;
20611;SDS011;10465;42.686;23.364;2024-02-04T10:02:03;3.15;;;1.67;;
20611;SDS011;10465;42.686;23.364;2024-02-04T10:04:30;3.47;;;1.75;;
20611;SDS011;10465;42.686;23.364;2024-02-04T10:06:56;4.80;;;1.50;;
20611;SDS011;10465;42.686;23.364;2024-02-04T10:09:22;1.98;;;1.50;;
20611;SDS011;10465;42.686;23.364;2024-02-04T10:11:47;2.72;;;1.58;;
20611;SDS011;10465;42.686;23.364;2024-02-04T10:14:12;2.63;;;1.65;;
20611;SDS011;10465;42.686;23.364;2024-02-04T10:16:39;5.03;;;1.40;;
20611;SDS011;10465;42.686;23.364;2024-02-04T10:19:05;2.25;;;1.48;;
20611;SDS011;10465;42.686;23.364;2024-02-04T10:21:31;1.65;;;1.30;;
20611;SDS011;10465;42.686;23.364;2024-02-04T10:23:56;5.82;;;1.55;;
20611;SDS011;10465;42.686;23.364;2024-02-04T10:26:22;1.83;;;1.35;;
20611;SDS011;10465;42.686;23.364;2024-02-04T10:28:47;4.32;;;1.83;;
20611;SDS011;10465;42.686;23.364;2024-02-04T10:31:14;2.22;;;1.38;;
20611;SDS011;10465;42.686;23.364;2024-02-04T10:33:40;1.75;;;1.40;;
20611;SDS011;10465;42.686;23.364;2024-02-04T10:36:11;2.42;;;1.30;;
20611;SDS011;10465;42.686;23.364;2024-02-04T10:38:36;3.17;;;1.60;;
20611;SDS011;10465;42.686;23.364;2024-02-04T10:41:02;1.55;;;1.45;;
20611;SDS011;10465;42.686;23.364;2024-02-04T10:43:30;1.45;;;1.10;;
20611;SDS011;10465;42.686;23.364;2024-02-04T10:46:08;2.05;;;1.20;;
20611;SDS011;10465;42.686;23.364;2024-02-04T10:48:36;3.67;;;1.30;;
20611;SDS011;10465;42.686;23.364;2024-02-04T10:51:13;2.78;;;1.73;;
20611;SDS011;10465;42.686;23.364;2024-02-04T10:53:43;3.50;;;1.17;;
20611;SDS011;10465;42.686;23.364;2024-02-04T10:56:32;3.33;;;1.33;;
20611;SDS011;10465;42.686;23.364;2024-02-04T10:59:02;2.63;;;1.42;;
20611;SDS011;10465;42.686;23.364;2024-02-04T11:01:28;3.10;;;1.75;;
20611;SDS011;10465;42.686;23.364;2024-02-04T11:03:54;2.33;;;1.48;;
20611;SDS011;10465;42.686;23.364;2024-02-04T11:06:20;2.78;;;1.35;;
20611;SDS011;10465;42.686;23.364;2024-02-04T11:08:47;2.47;;;1.50;;
20611;SDS011;10465;42.686;23.364;2024-02-04T11:11:12;1.75;;;1.30;;
20611;SDS011;10465;42.686;23.364;2024-02-04T11:13:38;2.60;;;1.45;;
20611;SDS011;10465;42.686;23.364;2024-02-04T11:16:08;1.65;;;1.00;;
20611;SDS011;10465;42.686;23.364;2024-02-04T11:24:04;6.18;;;1.20;;
20611;SDS011;10465;42.686;23.364;2024-02-04T11:26:42;1.70;;;1.08;;
20611;SDS011;10465;42.686;23.364;2024-02-04T11:29:09;1.40;;;1.10;;
20611;SDS011;10465;42.686;23.364;2024-02-04T11:31:38;4.65;;;1.45;;
20611;SDS011;10465;42.686;23.364;2024-02-04T11:34:05;2.10;;;1.60;;
20611;SDS011;10465;42.686;23.364;2024-02-04T11:36:37;2.15;;;1.30;;
20611;SDS011;10465;42.686;23.364;2024-02-04T11:39:10;2.83;;;1.52;;
20611;SDS011;10465;42.686;23.364;2024-02-04T11:41:45;2.00;;;1.40;;
20611;SDS011;10465;42.686;23.364;2024-02-04T11:44:12;1.83;;;1.17;;
20611;SDS011;10465;42.686;23.364;2024-02-04T11:46:38;1.60;;;1.30;;
20611;SDS011;10465;42.686;23.364;2024-02-04T11:49:03;1.08;;;0.98;;
20611;SDS011;10465;42.686;23.364;2024-02-04T11:51:29;1.80;;;1.30;;
20611;SDS011;10465;42.686;23.364;2024-02-04T11:53:55;1.77;;;1.40;;
20611;SDS011;10465;42.686;23.364;2024-02-04T11:56:21;2.67;;;1.35;;
20611;SDS011;10465;42.686;23.364;2024-02-04T11:58:49;1.30;;;1.20;;
20611;SDS011;10465;42.686;23.364;2024-02-04T12:01:14;1.67;;;1.13;;
20611;SDS011;10465;42.686;23.364;2024-02-04T12:03:40;1.50;;;1.40;;
20611;SDS011;10465;42.686;23.364;2024-02-04T12:06:06;3.28;;;1.40;;
20611;SDS011;10465;42.686;23.364;2024-02-04T12:08:34;2.88;;;1.42;;
20611;SDS011;10465;42.686;23.364;2024-02-04T12:10:59;3.30;;;1.73;;
20611;SDS011;10465;42.686;23.364;2024-02-04T12:13:27;2.05;;;1.40;;
20611;SDS011;10465;42.686;23.364;2024-02-04T12:15:53;1.63;;;1.15;;
20611;SDS011;10465;42.686;23.364;2024-02-04T12:18:19;2.13;;;1.30;;
20611;SDS011;10465;42.686;23.364;2024-02-04T12:20:47;2.03;;;1.23;;
20611;SDS011;10465;42.686;23.364;2024-02-04T12:23:16;2.05;;;1.60;;
20611;SDS011;10465;42.686;23.364;2024-02-04T12:25:43;1.65;;;1.40;;
20611;SDS011;10465;42.686;23.364;2024-02-04T12:28:09;3.83;;;1.50;;
20611;SDS011;10465;42.686;23.364;2024-02-04T12:30:35;1.73;;;1.52;;
20611;SDS011;10465;42.686;23.364;2024-02-04T12:33:01;2.28;;;1.63;;
20611;SDS011;10465;42.686;23.364;2024-02-04T12:35:29;1.20;;;1.10;;
20611;SDS011;10465;42.686;23.364;2024-02-04T12:37:56;3.38;;;1.40;;
20611;SDS011;10465;42.686;23.364;2024-02-04T12:40:23;1.63;;;1.52;;
20611;SDS011;10465;42.686;23.364;2024-02-04T12:42:56;1.50;;;1.40;;
20611;SDS011;10465;42.686;23.364;2024-02-04T12:45:23;2.50;;;1.90;;
20611;SDS011;10465;42.686;23.364;2024-02-04T12:47:50;5.15;;;1.77;;
20611;SDS011;10465;42.686;23.364;2024-02-04T12:50:17;2.20;;;1.52;;
20611;SDS011;10465;42.686;23.364;2024-02-04T12:52:44;1.90;;;1.70;;
20611;SDS011;10465;42.686;23.364;2024-02-04T12:55:23;3.03;;;1.73;;
20611;SDS011;10465;42.686;23.364;2024-02-04T12:57:49;3.60;;;1.90;;
20611;SDS011;10465;42.686;23.364;2024-02-04T13:00:18;3.50;;;1.85;;
20611;SDS011;10465;42.686;23.364;2024-02-04T13:02:43;1.55;;;1.45;;
20611;SDS011;10465;42.686;23.364;2024-02-04T13:05:09;1.95;;;1.75;;
20611;SDS011;10465;42.686;23.364;2024-02-04T13:07:35;2.42;;;1.70;;
20611;SDS011;10465;42.686;23.364;2024-02-04T13:10:01;2.35;;;1.88;;
20611;SDS011;10465;42.686;23.364;2024-02-04T13:12:26;3.28;;;2.50;;
20611;SDS011;10465;42.686;23.364;2024-02-04T13:14:52;1.95;;;1.75;;
20611;SDS011;10465;42.686;23.364;2024-02-04T13:17:17;4.28;;;2.78;;
20611;SDS011;10465;42.686;23.364;2024-02-04T13:19:43;2.67;;;1.77;;
20611;SDS011;10465;42.686;23.364;2024-02-04T13:22:09;3.17;;;1.98;;
20611;SDS011;10465;42.686;23.364;2024-02-04T13:24:35;2.42;;;1.85;;
20611;SDS011;10465;42.686;23.364;2024-02-04T13:27:01;3.22;;;1.70;;
20611;SDS011;10465;42.686;23.364;2024-02-04T13:29:28;2.60;;;1.80;;
20611;SDS011;10465;42.686;23.364;2024-02-04T13:31:53;1.67;;;1.55;;
20611;SDS011;10465;42.686;23.364;2024-02-04T13:34:19;2.60;;;1.70;;
20611;SDS011;10465;42.686;23.364;2024-02-04T13:36:45;1.92;;;1.70;;
20611;SDS011;10465;42.686;23.364;2024-02-04T13:39:11;2.80;;;1.50;;
20611;SDS011;10465;42.686;23.364;2024-02-04T13:41:38;3.50;;;1.85;;
20611;SDS011;10465;42.686;23.364;2024-02-04T13:44:03;3.13;;;1.88;;
20611;SDS011;10465;42.686;23.364;2024-02-04T13:46:29;2.95;;;1.90;;
20611;SDS011;10465;42.686;23.364;2024-02-04T13:48:55;1.60;;;1.40;;
20611;SDS011;10465;42.686;23.364;2024-02-04T13:51:20;2.85;;;1.58;;
20611;SDS011;10465;42.686;23.364;2024-02-04T13:53:46;2.78;;;1.65;;
20611;SDS011;10465;42.686;23.364;2024-02-04T13:56:11;2.13;;;1.65;;
20611;SDS011;10465;42.686;23.364;2024-02-04T13:58:37;3.10;;;2.00;;
20611;SDS011;10465;42.686;23.364;2024-02-04T14:01:03;3.38;;;1.80;;
20611;SDS011;10465;42.686;23.364;2024-02-04T14:03:28;2.35;;;1.73;;
20611;SDS011;10465;42.686;23.364;2024-02-04T14:05:53;1.67;;;1.38;;
20611;SDS011;10465;42.686;23.364;2024-02-04T14:08:20;2.22;;;1.70;;
20611;SDS011;10465;42.686;23.364;2024-02-04T14:10:46;2.25;;;1.70;;
20611;SDS011;10465;42.686;23.364;2024-02-04T14:13:12;2.42;;;1.52;;
20611;SDS011;10465;42.686;23.364;2024-02-04T14:15:37;3.58;;;1.52;;
20611;SDS011;10465;42.686;23.364;2024-02-04T14:18:03;2.40;;;1.67;;
20611;SDS011;10465;42.686;23.364;2024-02-04T14:20:29;1.92;;;1.38;;
20611;SDS011;10465;42.686;23.364;2024-02-04T14:22:54;6.40;;;1.38;;
20611;SDS011;10465;42.686;23.364;2024-02-04T14:25:21;3.47;;;1.60;;
20611;SDS011;10465;42.686;23.364;2024-02-04T14:27:49;2.05;;;1.40;;
20611;SDS011;10465;42.686;23.364;2024-02-04T14:30:14;4.78;;;1.55;;
20611;SDS011;10465;42.686;23.364;2024-02-04T14:32:40;3.35;;;1.33;;
20611;SDS011;10465;42.686;23.364;2024-02-04T14:35:07;2.53;;;1.60;;
20611;SDS011;10465;42.686;23.364;2024-02-04T14:37:34;2.17;;;1.30;;